Time;durP1;ratioP1;P1;durP2;ratioP2;P2;SDS_P1;SDS_P2;PMS_P1;PMS_P2;Temp;Humidity;BMP_temperature;BMP_pressure;BME280_temperature;BME280_humidity;BME280_pressure;Samples;Min_cycle;Max_cycle;Signal;HPM_P1;HPM_P2
2022/10/20 00:01:14;;;;;;;10.18;4.65;;;;;;;19.36;48.80;101371.34;5036687;28;20028;-64
2022/10/20 00:03:40;;;;;;;12.48;4.60;;;;;;;19.40;48.90;101380.03;5037199;28;20052;-69
2022/10/20 00:06:09;;;;;;;8.50;3.95;;;;;;;19.36;48.87;101376.78;5054678;28;20025;-64
2022/10/20 00:08:35;;;;;;;8.77;4.32;;;;;;;19.37;49.08;101377.63;5054950;28;20092;-64
2022/10/20 00:11:00;;;;;;;5.85;3.97;;;;;;;19.35;49.06;101368.78;5054826;28;20614;-64
2022/10/20 00:13:25;;;;;;;8.10;4.38;;;;;;;19.35;49.11;101368.78;5053497;28;20526;-64
2022/10/20 00:15:52;;;;;;;7.00;3.88;;;;;;;19.34;48.98;101372.53;5036836;28;20033;-65
2022/10/20 00:18:18;;;;;;;9.05;4.35;;;;;;;19.34;48.88;101367.09;5020450;28;20021;-64
2022/10/20 00:20:44;;;;;;;7.95;4.03;;;;;;;19.27;49.33;101347.06;5054550;28;20431;-64
2022/10/20 00:23:09;;;;;;;8.05;4.63;;;;;;;19.37;49.12;101366.75;5036874;28;20035;-64
2022/10/20 00:25:34;;;;;;;9.63;4.78;;;;;;;19.33;48.88;101360.81;5053124;28;20108;-64
2022/10/20 00:28:00;;;;;;;7.80;4.05;;;;;;;19.39;49.30;101367.44;5054354;28;20021;-64
2022/10/20 00:30:25;;;;;;;9.68;4.55;;;;;;;19.40;49.40;101371.88;5054289;28;20029;-65
2022/10/20 00:32:50;;;;;;;7.20;4.03;;;;;;;19.39;48.94;101362.88;5054232;28;20060;-64
2022/10/20 00:35:16;;;;;;;8.93;4.20;;;;;;;19.39;48.96;101364.75;5054219;28;20028;-65
2022/10/20 00:37:41;;;;;;;9.20;4.68;;;;;;;19.35;49.27;101357.91;5054160;28;20033;-64
2022/10/20 00:40:07;;;;;;;8.75;4.30;;;;;;;19.35;49.21;101352.47;5054136;28;20490;-64
2022/10/20 00:42:32;;;;;;;11.88;4.15;;;;;;;19.37;49.48;101350.44;5036038;28;20033;-64
2022/10/20 00:44:59;;;;;;;9.85;4.30;;;;;;;19.37;49.41;101355.88;5054313;28;20060;-65
2022/10/20 00:47:44;;;;;;;7.88;4.70;;;;;;;19.37;49.37;101361.31;5036171;28;20028;-66
2022/10/20 00:50:11;;;;;;;11.85;3.72;;;;;;;19.36;49.34;101359.63;5052591;28;20025;-65
2022/10/20 00:52:38;;;;;;;7.47;4.30;;;;;;;19.38;49.56;101358.44;5054046;28;20128;-64
2022/10/20 00:55:05;;;;;;;7.90;4.03;;;;;;;19.39;49.59;101341.13;5019683;28;20071;-65
2022/10/20 00:57:31;;;;;;;11.60;4.93;;;;;;;19.39;49.65;101332.13;5035826;28;20056;-64
2022/10/20 00:59:56;;;;;;;7.20;3.90;;;;;;;19.39;49.62;101330.28;5019706;28;20506;-65
2022/10/20 01:02:22;;;;;;;8.75;4.78;;;;;;;19.38;49.70;101320.41;5053804;28;20075;-64
2022/10/20 01:04:48;;;;;;;10.27;5.35;;;;;;;19.39;49.80;101313.13;5036216;28;20072;-64
2022/10/20 01:07:13;;;;;;;10.32;5.07;;;;;;;19.36;49.81;101310.72;5052519;28;20049;-64
2022/10/20 01:09:38;;;;;;;13.07;4.72;;;;;;;19.34;49.39;101307.31;5053462;28;20047;-64
2022/10/20 01:12:07;;;;;;;11.75;5.45;;;;;;;19.33;49.89;101297.47;5035466;28;20116;-64
2022/10/20 01:14:54;;;;;;;11.45;5.25;;;;;;;19.30;49.52;101289.66;5053576;28;20025;-65
2022/10/20 01:17:22;;;;;;;8.23;4.50;;;;;;;19.30;49.89;101287.81;5052205;28;20025;-64
2022/10/20 01:20:21;;;;;;;8.90;4.63;;;;;;;19.28;49.58;101286.28;5053505;28;20021;-64
2022/10/20 01:23:01;;;;;;;8.85;5.20;;;;;;;19.26;49.94;101272.03;5035789;28;20016;-64
2022/10/20 01:25:42;;;;;;;13.73;5.65;;;;;;;19.24;49.92;101279.50;5053452;28;20395;-64
2022/10/20 01:28:15;;;;;;;8.98;4.65;;;;;;;19.23;50.50;101273.25;5053415;28;20024;-64
2022/10/20 01:30:44;;;;;;;11.07;4.55;;;;;;;19.26;49.65;101286.47;5052248;28;20158;-64
2022/10/20 01:33:18;;;;;;;10.85;5.45;;;;;;;19.29;49.91;101288.00;5053370;28;20086;-64
2022/10/20 01:35:54;;;;;;;14.70;5.18;;;;;;;19.32;49.46;101288.47;5053177;28;20133;-64
2022/10/20 01:39:10;;;;;;;13.25;4.75;;;;;;;19.36;49.92;101286.25;5051929;28;20017;-64
2022/10/20 01:41:41;;;;;;;13.68;5.32;;;;;;;19.36;49.76;101272.66;5011378;28;20026;-64
2022/10/20 01:44:09;;;;;;;9.18;5.03;;;;;;;19.31;49.78;101259.63;4995036;28;20418;-64
2022/10/20 01:46:36;;;;;;;9.70;5.20;;;;;;;19.36;49.92;101269.97;5011758;28;20065;-65
2022/10/20 01:49:06;;;;;;;9.90;4.65;;;;;;;19.36;49.77;101261.81;5011814;28;20037;-67
2022/10/20 01:51:32;;;;;;;9.57;5.20;;;;;;;19.35;49.54;101260.09;5010632;28;20038;-64
2022/10/20 01:53:57;;;;;;;13.07;5.18;;;;;;;19.36;49.49;101261.81;4994845;28;20030;-64
2022/10/20 01:56:33;;;;;;;11.25;5.70;;;;;;;19.32;50.11;101265.91;4995524;28;20404;-64
2022/10/20 01:59:02;;;;;;;9.52;5.18;;;;;;;19.38;49.99;101270.63;4994904;28;20034;-64
2022/10/20 02:02:16;;;;;;;10.55;5.53;;;;;;;19.42;50.04;101266.56;4994778;28;20041;-64
2022/10/20 02:05:01;;;;;;;12.93;4.45;;;;;;;19.39;49.83;101264.22;4998487;28;20042;-65
2022/10/20 02:07:52;;;;;;;12.18;4.85;;;;;;;19.44;49.44;101264.53;4994963;28;20091;-66
2022/10/20 02:10:21;;;;;;;12.77;5.72;;;;;;;19.44;49.85;101259.94;5011278;28;20125;-65
2022/10/20 02:12:49;;;;;;;10.23;5.47;;;;;;;19.41;49.99;101243.13;4994961;28;20091;-64
2022/10/20 02:15:20;;;;;;;8.98;5.00;;;;;;;19.44;49.70;101238.19;5022416;28;20040;-64
2022/10/20 02:17:46;;;;;;;25.10;5.53;;;;;;;19.42;49.51;101233.97;5018466;28;20064;-64
2022/10/20 02:20:12;;;;;;;10.27;5.78;;;;;;;19.45;49.45;101233.63;5034956;28;20429;-65
2022/10/20 02:22:44;;;;;;;14.23;4.55;;;;;;;19.45;49.48;101223.59;5036126;28;20070;-66
2022/10/20 02:25:11;;;;;;;9.60;4.90;;;;;;;19.43;49.45;101212.03;5039911;28;20033;-65
2022/10/20 02:27:38;;;;;;;8.43;5.32;;;;;;;19.07;49.62;101146.47;5056584;28;20518;-65
2022/10/20 02:30:06;;;;;;;7.53;4.60;;;;;;;19.43;49.93;101208.50;5055387;28;20496;-64
2022/10/20 02:32:33;;;;;;;7.80;4.70;;;;;;;19.45;49.56;101211.88;5056566;28;20025;-65
2022/10/20 02:34:58;;;;;;;13.45;5.18;;;;;;;19.44;49.62;101207.47;5038664;28;20470;-64
2022/10/20 02:37:24;;;;;;;10.18;5.60;;;;;;;19.44;49.86;101205.59;5038752;28;20108;-64
2022/10/20 02:39:49;;;;;;;9.25;4.93;;;;;;;19.46;50.08;101202.69;5055304;28;20486;-65
2022/10/20 02:42:16;;;;;;;10.95;5.55;;;;;;;19.45;50.10;101190.16;5056334;28;20032;-64
2022/10/20 02:44:41;;;;;;;10.07;5.43;;;;;;;19.42;49.79;101191.34;5038411;28;20641;-65
2022/10/20 02:47:07;;;;;;;8.40;4.38;;;;;;;19.42;50.19;101185.06;5038378;28;20123;-64
2022/10/20 02:49:32;;;;;;;12.80;5.10;;;;;;;19.42;50.19;101179.63;5055115;28;20039;-64
2022/10/20 02:51:58;;;;;;;11.30;5.68;;;;;;;19.40;49.67;101176.25;5055026;28;20512;-64
2022/10/20 02:54:23;;;;;;;8.88;5.28;;;;;;;19.39;50.19;101174.53;5056444;28;20040;-65
2022/10/20 02:56:48;;;;;;;11.13;5.72;;;;;;;19.38;49.98;101167.38;5055030;28;20028;-64
2022/10/20 02:59:15;;;;;;;12.90;5.80;;;;;;;19.35;49.98;101165.00;5038005;28;20029;-64
2022/10/20 03:01:41;;;;;;;10.80;5.47;;;;;;;19.38;50.12;101161.94;5038041;28;20375;-64
2022/10/20 03:04:06;;;;;;;9.73;5.22;;;;;;;19.36;50.06;101174.88;5055912;28;20037;-64
2022/10/20 03:06:32;;;;;;;14.73;5.45;;;;;;;19.35;50.32;101165.88;5055879;28;20103;-64
2022/10/20 03:08:57;;;;;;;8.48;5.40;;;;;;;19.34;50.51;101155.19;5055819;28;20031;-64
2022/10/20 03:11:23;;;;;;;12.13;5.20;;;;;;;19.31;50.19;101150.97;5054700;28;20029;-77
2022/10/20 03:13:48;;;;;;;9.73;5.10;;;;;;;19.34;50.18;101155.19;5055751;28;20027;-64
2022/10/20 03:16:14;;;;;;;11.07;6.07;;;;;;;19.33;50.24;101151.63;5055858;28;20481;-64
2022/10/20 03:18:39;;;;;;;11.88;5.93;;;;;;;19.34;50.17;101147.03;5038040;28;20032;-65
2022/10/20 03:21:08;;;;;;;9.32;5.32;;;;;;;19.35;50.18;101140.56;5038332;28;20025;-65
2022/10/20 03:23:33;;;;;;;9.57;5.20;;;;;;;19.33;50.07;101129.88;5038201;28;20028;-65
2022/10/20 03:26:15;;;;;;;9.82;5.40;;;;;;;19.36;50.35;101124.09;5054716;28;20032;-66
2022/10/20 03:28:40;;;;;;;10.30;5.30;;;;;;;19.38;50.47;101123.91;5038221;28;20025;-64
2022/10/20 03:31:06;;;;;;;10.52;5.38;;;;;;;19.36;49.97;101115.09;5055653;28;20166;-65
2022/10/20 03:33:32;;;;;;;10.82;5.05;;;;;;;19.34;50.41;101118.00;5055131;28;20044;-65
2022/10/20 03:35:57;;;;;;;10.45;5.75;;;;;;;19.34;50.67;101112.56;5054215;28;20077;-65
2022/10/20 03:38:23;;;;;;;12.98;5.25;;;;;;;19.34;50.79;101115.28;5058614;28;20120;-65
2022/10/20 03:40:48;;;;;;;8.95;4.53;;;;;;;19.37;50.82;101123.09;5057415;28;20029;-65
2022/10/20 03:43:16;;;;;;;11.70;5.63;;;;;;;19.38;50.36;101124.78;5075104;28;20046;-65
2022/10/20 03:45:42;;;;;;;8.38;4.65;;;;;;;19.37;50.38;101108.66;5057149;28;20059;-65
2022/10/20 03:48:07;;;;;;;10.38;5.47;;;;;;;19.39;50.45;101106.63;5057154;28;20024;-65
2022/10/20 03:50:33;;;;;;;12.60;5.10;;;;;;;19.38;50.75;101113.03;5075127;28;20032;-65
2022/10/20 03:52:58;;;;;;;10.40;5.38;;;;;;;19.37;50.46;101119.50;5040549;28;20036;-65
2022/10/20 03:55:23;;;;;;;14.68;6.20;;;;;;;19.38;50.49;101107.59;5040395;28;20036;-65
2022/10/20 03:57:49;;;;;;;8.13;4.70;;;;;;;19.37;50.38;101095.06;5074818;28;20108;-65
2022/10/20 04:00:14;;;;;;;10.43;4.72;;;;;;;19.36;51.18;101093.34;5056910;28;20163;-74
2022/10/20 04:02:44;;;;;;;16.40;5.45;;;;;;;19.37;50.48;101087.75;5056799;28;20418;-65
2022/10/20 04:05:12;;;;;;;7.57;5.05;;;;;;;19.35;50.88;101078.94;5074724;28;20033;-65
2022/10/20 04:07:38;;;;;;;9.65;5.10;;;;;;;19.40;50.61;101089.31;5057040;28;20016;-65
2022/10/20 04:10:03;;;;;;;14.43;5.18;;;;;;;19.42;50.20;101076.38;5074591;28;20505;-65
2022/10/20 04:12:29;;;;;;;8.38;4.55;;;;;;;19.43;50.52;101078.91;5074915;28;20101;-65
2022/10/20 04:14:54;;;;;;;7.97;4.50;;;;;;;19.46;50.44;101077.69;5074578;28;20455;-65
2022/10/20 04:17:19;;;;;;;14.48;4.97;;;;;;;19.47;50.90;101079.41;5074455;28;20087;-65
2022/10/20 04:19:45;;;;;;;9.73;4.70;;;;;;;19.47;50.48;101082.13;5056656;28;20043;-65
2022/10/20 04:22:10;;;;;;;13.73;5.15;;;;;;;19.50;50.51;101073.59;5056620;28;20036;-65
2022/10/20 04:24:36;;;;;;;11.50;4.82;;;;;;;19.52;50.57;101072.38;5056457;28;20363;-65
2022/10/20 04:27:02;;;;;;;7.20;4.65;;;;;;;19.52;50.96;101076.97;5074645;28;20032;-65
2022/10/20 04:29:27;;;;;;;10.00;5.18;;;;;;;19.54;50.53;101091.25;5039786;28;20041;-65
2022/10/20 04:31:55;;;;;;;7.32;4.60;;;;;;;19.56;50.39;101084.59;5074285;28;20024;-65
2022/10/20 04:34:20;;;;;;;11.15;4.68;;;;;;;19.59;50.01;101061.66;5074348;28;20028;-65
2022/10/20 04:36:46;;;;;;;8.25;4.47;;;;;;;19.61;50.77;101060.44;5074730;28;20316;-66
2022/10/20 04:39:11;;;;;;;10.25;5.10;;;;;;;19.57;50.32;101052.84;5074325;28;20036;-65
2022/10/20 04:41:36;;;;;;;10.95;4.85;;;;;;;19.60;50.35;101063.31;5074026;28;20126;-65
2022/10/20 04:44:02;;;;;;;7.43;4.75;;;;;;;19.61;50.74;101067.75;5039427;28;20041;-65
2022/10/20 04:46:27;;;;;;;10.38;5.00;;;;;;;19.62;50.34;101072.16;5073404;28;20371;-65
2022/10/20 04:48:53;;;;;;;5.80;4.15;;;;;;;19.60;50.84;101069.59;5056152;28;20035;-65
2022/10/20 04:51:18;;;;;;;13.18;5.07;;;;;;;19.62;50.34;101066.72;5073734;28;20394;-65
2022/10/20 04:53:44;;;;;;;10.20;5.18;;;;;;;19.59;50.48;101042.63;5056002;28;20127;-65
2022/10/20 04:56:13;;;;;;;13.50;4.22;;;;;;;19.60;50.26;101030.72;5073793;28;20025;-65
2022/10/20 04:58:38;;;;;;;7.82;5.18;;;;;;;19.60;50.68;101025.28;5073685;28;20016;-65
2022/10/20 05:01:06;;;;;;;16.10;4.50;;;;;;;19.58;50.46;101027.34;5073670;28;20036;-65
2022/10/20 05:03:32;;;;;;;6.68;4.43;;;;;;;19.58;50.54;101032.78;5073540;28;20060;-65
2022/10/20 05:06:28;;;;;;;8.75;5.55;;;;;;;19.58;50.44;101032.78;5055805;28;20443;-65
2022/10/20 05:08:55;;;;;;;9.88;4.68;;;;;;;19.57;50.27;101031.91;5039470;28;20055;-65
2022/10/20 05:11:22;;;;;;;9.60;4.68;;;;;;;19.57;50.34;101020.22;5055757;28;20016;-65
2022/10/20 05:13:48;;;;;;;9.35;5.53;;;;;;;19.54;50.67;101020.59;5055691;28;20056;-65
2022/10/20 05:16:16;;;;;;;9.00;5.32;;;;;;;19.57;50.53;101031.91;5055688;28;20079;-65
2022/10/20 05:18:42;;;;;;;15.05;5.13;;;;;;;19.57;50.24;101031.91;5073651;28;20037;-65
2022/10/20 05:21:09;;;;;;;12.07;4.18;;;;;;;19.57;50.20;101022.94;5055644;28;20031;-65
2022/10/20 05:23:35;;;;;;;7.28;4.50;;;;;;;19.55;50.20;101025.84;5055566;28;20111;-65
2022/10/20 05:26:05;;;;;;;8.60;5.00;;;;;;;19.57;49.89;101021.03;5072800;28;20104;-66
2022/10/20 05:28:31;;;;;;;9.35;5.38;;;;;;;19.57;49.93;101021.03;5073392;28;20381;-63
2022/10/20 05:31:01;;;;;;;10.63;5.18;;;;;;;19.57;50.10;101009.34;5073253;28;20108;-63
2022/10/20 05:33:26;;;;;;;7.72;4.38;;;;;;;19.59;50.47;101020.88;5055468;28;20055;-64
2022/10/20 05:35:51;;;;;;;8.57;5.50;;;;;;;19.58;50.50;101000.16;5073200;28;20068;-65
2022/10/20 05:38:17;;;;;;;8.07;4.82;;;;;;;19.59;49.88;101005.44;5074349;28;20032;-63
2022/10/20 05:40:42;;;;;;;12.65;4.95;;;;;;;19.61;51.02;101016.94;5038864;28;20040;-64
2022/10/20 05:43:07;;;;;;;9.95;5.10;;;;;;;19.60;50.31;101017.13;5073033;28;20494;-70
2022/10/20 05:45:33;;;;;;;9.48;4.75;;;;;;;19.56;50.05;100999.50;5073067;28;20385;-65
2022/10/20 05:47:58;;;;;;;18.25;5.10;;;;;;;19.60;50.59;101001.66;5073041;28;20070;-65
2022/10/20 05:50:23;;;;;;;9.07;4.35;;;;;;;19.63;50.49;101011.31;5073058;28;20032;-65
2022/10/20 05:52:49;;;;;;;9.88;5.00;;;;;;;19.64;49.94;101022.03;5073032;28;20032;-68
2022/10/20 05:55:14;;;;;;;12.52;5.60;;;;;;;19.58;50.48;101025.47;5072976;28;20086;-68
2022/10/20 05:57:40;;;;;;;10.80;5.93;;;;;;;19.66;50.19;101029.97;5057869;28;20490;-68
2022/10/20 06:00:06;;;;;;;15.65;5.55;;;;;;;19.65;49.82;101028.31;5059174;28;20107;-68
2022/10/20 06:02:31;;;;;;;9.15;4.70;;;;;;;19.63;50.05;101020.31;5059041;28;20066;-68
2022/10/20 06:04:56;;;;;;;10.13;4.88;;;;;;;19.60;50.44;101023.41;5077062;28;20032;-68
2022/10/20 06:07:22;;;;;;;12.70;5.57;;;;;;;19.64;50.44;101048.34;5026017;28;20063;-68
2022/10/20 06:09:47;;;;;;;8.68;4.57;;;;;;;19.68;50.20;101050.50;5077084;28;20030;-68
2022/10/20 06:12:12;;;;;;;7.63;4.88;;;;;;;19.66;49.86;101036.25;5076905;28;20029;-68
2022/10/20 06:14:38;;;;;;;8.57;4.15;;;;;;;19.73;49.81;101033.66;5059086;28;20059;-68
2022/10/20 06:17:03;;;;;;;12.23;5.50;;;;;;;19.73;49.86;101039.97;5076929;28;20037;-68
2022/10/20 06:19:29;;;;;;;9.80;4.75;;;;;;;19.69;49.63;101018.75;5076745;28;20035;-68
2022/10/20 06:21:55;;;;;;;8.65;5.43;;;;;;;19.70;49.92;101025.88;5059099;28;20033;-68
2022/10/20 06:24:20;;;;;;;8.43;4.45;;;;;;;19.70;49.39;101034.03;5076902;28;20497;-68
2022/10/20 06:26:46;;;;;;;8.52;4.53;;;;;;;19.71;50.49;101035.72;5076673;28;20118;-68
2022/10/20 06:29:14;;;;;;;16.65;4.68;;;;;;;19.71;50.49;101033.00;5076638;28;20028;-68
2022/10/20 06:31:43;;;;;;;18.35;5.18;;;;;;;19.70;50.44;101036.75;5058697;28;20035;-68
2022/10/20 06:34:13;;;;;;;9.73;4.75;;;;;;;19.75;50.25;101039.75;5076503;28;20024;-68
2022/10/20 06:36:38;;;;;;;12.23;4.65;;;;;;;19.75;50.25;101042.47;5058609;28;20024;-68
2022/10/20 06:39:05;;;;;;;7.75;4.88;;;;;;;19.76;49.77;101036.03;5058489;28;20025;-68
2022/10/20 06:41:31;;;;;;;10.70;5.40;;;;;;;19.73;50.27;101036.38;5076307;28;20035;-68
2022/10/20 06:43:58;;;;;;;7.18;4.70;;;;;;;19.79;50.19;101051.13;5058436;28;20036;-68
2022/10/20 06:46:25;;;;;;;8.73;5.32;;;;;;;19.80;50.34;101064.53;5076240;28;20032;-68
2022/10/20 06:48:50;;;;;;;7.80;4.65;;;;;;;19.82;49.86;101061.63;5076295;28;20421;-68
2022/10/20 06:51:23;;;;;;;18.27;5.10;;;;;;;19.82;49.72;101050.75;5076104;28;20094;-68
2022/10/20 06:53:50;;;;;;;10.00;5.13;;;;;;;19.80;49.84;101050.94;5076136;28;20103;-68
2022/10/20 06:56:24;;;;;;;9.40;4.97;;;;;;;19.77;49.91;101038.53;5058576;28;20482;-68
2022/10/20 06:58:52;;;;;;;7.68;4.47;;;;;;;19.78;50.21;101050.28;5076019;28;20032;-68
2022/10/20 07:01:37;;;;;;;6.95;4.75;;;;;;;19.80;50.35;101047.34;5058393;28;20020;-68
2022/10/20 07:04:05;;;;;;;7.72;4.50;;;;;;;19.81;50.45;101044.47;5058044;28;20047;-68
2022/10/20 07:06:33;;;;;;;8.68;4.78;;;;;;;19.82;50.13;101050.75;5058015;28;20509;-68
2022/10/20 07:08:59;;;;;;;12.75;4.53;;;;;;;19.86;49.71;101036.59;5075232;28;20024;-68
2022/10/20 07:11:27;;;;;;;16.35;5.05;;;;;;;19.89;50.17;101036.22;5041282;28;20390;-68
2022/10/20 07:13:52;;;;;;;8.60;4.97;;;;;;;19.90;50.00;101042.53;5075903;28;20028;-68
2022/10/20 07:16:22;;;;;;;12.82;5.88;;;;;;;19.94;50.02;101039.25;5057931;28;20375;-68
2022/10/20 07:18:48;;;;;;;9.73;5.43;;;;;;;20.00;50.19;101043.09;5075606;28;20024;-67
2022/10/20 07:21:18;;;;;;;14.40;5.50;;;;;;;20.03;50.28;101034.56;5041014;28;20024;-68
2022/10/20 07:23:44;;;;;;;15.07;6.22;;;;;;;20.10;49.55;101044.50;5075690;28;20021;-68
2022/10/20 07:26:13;;;;;;;12.35;5.70;;;;;;;20.13;49.46;101049.59;5075509;28;20112;-68
2022/10/20 07:28:41;;;;;;;11.20;4.80;;;;;;;20.17;49.70;101050.91;5075629;28;20020;-69
2022/10/20 07:31:10;;;;;;;9.45;5.43;;;;;;;20.21;50.17;101041.34;5075542;28;20029;-78
2022/10/20 07:33:35;;;;;;;15.85;5.75;;;;;;;20.25;50.06;101037.25;5057749;28;20038;-68
2022/10/20 07:36:01;;;;;;;11.82;4.97;;;;;;;20.32;50.28;101038.19;5075435;28;20024;-68
2022/10/20 07:38:26;;;;;;;7.13;4.63;;;;;;;20.32;50.12;101040.91;5075330;28;20074;-68
2022/10/20 07:40:52;;;;;;;13.75;5.47;;;;;;;20.38;49.75;101036.59;5057580;28;20020;-68
2022/10/20 07:43:18;;;;;;;15.57;5.10;;;;;;;20.43;49.42;101027.88;5075401;28;20394;-68
2022/10/20 07:45:43;;;;;;;11.00;4.22;;;;;;;20.47;49.28;101030.03;5075193;28;20037;-68
2022/10/20 07:48:08;;;;;;;10.77;4.80;;;;;;;20.48;49.61;101036.31;5075334;28;20025;-68
2022/10/20 07:50:35;;;;;;;10.38;4.97;;;;;;;20.51;49.90;101035.94;5075101;28;20461;-68
2022/10/20 07:53:01;;;;;;;6.75;4.55;;;;;;;20.54;49.26;101025.53;5075134;28;20044;-68
2022/10/20 07:55:26;;;;;;;10.05;4.75;;;;;;;20.60;49.48;101018.50;5074978;28;20063;-68
2022/10/20 07:57:52;;;;;;;8.65;4.60;;;;;;;20.67;49.62;101025.69;5057019;28;20024;-68
2022/10/20 08:00:17;;;;;;;10.77;4.97;;;;;;;20.78;49.43;101027.94;5074926;28;20016;-68
2022/10/20 08:02:44;;;;;;;8.13;4.85;;;;;;;20.90;49.18;101011.94;5074693;28;20078;-68
2022/10/20 08:05:09;;;;;;;10.45;5.10;;;;;;;20.89;49.07;101005.66;5074744;28;20099;-68
2022/10/20 08:07:34;;;;;;;8.75;4.93;;;;;;;20.94;49.66;101002.34;5056879;28;20419;-68
2022/10/20 08:10:00;;;;;;;9.52;4.65;;;;;;;20.97;49.67;101006.56;5074519;28;20356;-69
2022/10/20 08:12:25;;;;;;;10.13;4.65;;;;;;;20.98;49.45;101011.81;5074716;28;20028;-69
2022/10/20 08:14:51;;;;;;;11.77;4.82;;;;;;;21.00;49.49;101008.91;5074612;28;20029;-69
2022/10/20 08:17:16;;;;;;;7.03;4.32;;;;;;;21.00;49.45;101006.16;5074466;28;20026;-68
2022/10/20 08:19:42;;;;;;;11.95;4.60;;;;;;;20.95;49.69;101009.47;5056147;28;20032;-69
2022/10/20 08:22:07;;;;;;;7.88;4.70;;;;;;;20.94;49.31;101029.56;5073933;28;20029;-69
2022/10/20 08:24:32;;;;;;;8.13;3.95;;;;;;;20.95;49.65;101050.34;5056633;28;20036;-68
2022/10/20 08:26:59;;;;;;;9.27;5.75;;;;;;;20.97;49.67;101041.97;5039805;28;20103;-68
2022/10/20 08:29:25;;;;;;;10.65;5.10;;;;;;;20.96;49.96;101032.97;5074196;28;20016;-68
2022/10/20 08:31:50;;;;;;;15.43;5.10;;;;;;;20.95;49.60;101031.28;5074262;28;20035;-68
2022/10/20 08:34:15;;;;;;;12.88;4.97;;;;;;;20.99;49.61;101034.47;5074406;28;20024;-68
2022/10/20 08:36:41;;;;;;;9.80;5.55;;;;;;;21.00;49.05;101042.44;5056283;28;20028;-69
2022/10/20 08:39:06;;;;;;;14.95;4.90;;;;;;;21.01;49.56;101027.78;5074088;28;20029;-68
2022/10/20 08:41:35;;;;;;;11.05;5.68;;;;;;;21.03;48.82;101031.16;5073899;28;20060;-68
2022/10/20 08:44:01;;;;;;;12.10;5.68;;;;;;;21.04;49.74;101026.56;5074079;28;20029;-68
2022/10/20 08:46:33;;;;;;;7.32;4.60;;;;;;;21.03;49.62;101022.97;5056114;28;20039;-68
2022/10/20 08:48:59;;;;;;;10.30;5.20;;;;;;;21.10;49.86;101021.22;5056027;28;20099;-68
2022/10/20 08:51:29;;;;;;;11.30;4.97;;;;;;;21.11;49.68;101012.00;5073864;28;20075;-68
2022/10/20 08:53:55;;;;;;;11.48;4.63;;;;;;;21.12;49.95;101000.06;5055979;28;20021;-69
2022/10/20 08:56:23;;;;;;;6.65;4.53;;;;;;;21.15;49.87;101002.41;5073709;28;20021;-68
2022/10/20 08:58:48;;;;;;;7.45;4.55;;;;;;;21.23;49.86;101004.16;5055869;28;20028;-68
2022/10/20 09:01:34;;;;;;;10.57;4.70;;;;;;;21.32;49.89;100998.41;5073773;28;20402;-68
2022/10/20 09:04:12;;;;;;;7.10;4.55;;;;;;;21.36;49.07;100990.66;5051632;28;20506;-68
2022/10/20 09:06:40;;;;;;;11.95;5.00;;;;;;;21.45;49.39;100997.66;5053990;28;20024;-68
2022/10/20 09:09:06;;;;;;;8.45;4.30;;;;;;;21.48;49.09;100981.78;5052294;28;20146;-68
2022/10/20 09:11:35;;;;;;;9.50;4.43;;;;;;;21.45;49.72;100976.72;5053496;28;20123;-68
2022/10/20 09:14:01;;;;;;;9.48;4.75;;;;;;;21.50;49.64;100969.84;5052364;28;20032;-70
2022/10/20 09:16:36;;;;;;;6.00;4.55;;;;;;;21.50;49.62;100961.66;5052534;28;20029;-69
2022/10/20 09:19:03;;;;;;;12.07;5.45;;;;;;;21.50;48.90;101002.56;5052273;28;20108;-68
2022/10/20 09:21:31;;;;;;;11.25;4.32;;;;;;;21.51;49.72;101002.34;5052249;28;20032;-68
2022/10/20 09:26:48;;;;;;;13.15;4.00;;;;;;;21.45;49.74;101033.97;5052630;28;20039;-68
2022/10/20 09:29:15;;;;;;;6.32;4.15;;;;;;;21.40;50.00;101044.59;5052053;28;20052;-68
2022/10/20 09:31:50;;;;;;;10.27;4.80;;;;;;;21.37;49.75;101045.00;5051753;28;20034;-69
2022/10/20 09:34:31;;;;;;;10.68;4.15;;;;;;;21.35;49.75;101052.53;5052148;28;20067;-68
2022/10/20 09:37:05;;;;;;;12.68;4.53;;;;;;;21.33;49.74;101049.13;5053162;28;20025;-68
2022/10/20 09:39:42;;;;;;;11.60;6.07;;;;;;;21.35;49.76;101036.16;5053096;28;20556;-69
2022/10/20 09:42:13;;;;;;;10.32;4.32;;;;;;;21.35;49.83;101017.09;5051976;28;20023;-68
2022/10/20 09:45:05;;;;;;;10.93;5.30;;;;;;;21.37;50.18;101023.19;5052059;28;20036;-68
2022/10/20 09:47:32;;;;;;;7.93;4.57;;;;;;;21.31;49.49;101007.59;5052470;28;20410;-68
2022/10/20 09:49:59;;;;;;;8.73;4.55;;;;;;;21.41;49.98;101019.00;5053165;28;20051;-68
2022/10/20 09:52:33;;;;;;;11.43;4.35;;;;;;;21.39;49.99;101023.81;5053075;28;20052;-68
2022/10/20 09:55:25;;;;;;;9.20;4.50;;;;;;;21.40;50.51;101020.06;5051883;28;20029;-68
2022/10/20 09:57:52;;;;;;;9.07;4.68;;;;;;;21.43;49.45;101021.56;5052034;28;20099;-68
2022/10/20 10:00:33;;;;;;;8.93;4.28;;;;;;;21.46;50.39;101038.38;5051825;28;20083;-70
2022/10/20 10:03:19;;;;;;;13.88;5.22;;;;;;;21.48;49.45;101044.47;5051453;28;20057;-68
2022/10/20 10:05:45;;;;;;;14.50;5.30;;;;;;;21.47;49.92;101040.03;5052993;28;20039;-68
2022/10/20 10:08:13;;;;;;;15.73;4.88;;;;;;;21.53;49.70;101027.50;5051801;28;20112;-68
2022/10/20 10:10:39;;;;;;;10.93;5.25;;;;;;;21.55;50.10;101011.84;5052857;28;20035;-68
2022/10/20 10:13:04;;;;;;;8.07;4.18;;;;;;;21.58;49.66;101016.03;5051597;28;20025;-68
2022/10/20 10:15:31;;;;;;;7.80;4.63;;;;;;;21.61;50.06;101012.94;5052850;28;20147;-68
2022/10/20 10:17:57;;;;;;;9.40;4.78;;;;;;;21.64;50.20;101010.63;5052673;28;20017;-68
2022/10/20 10:20:28;;;;;;;9.15;4.53;;;;;;;21.68;50.13;101019.28;5052810;28;20036;-68
2022/10/20 10:23:08;;;;;;;11.63;5.22;;;;;;;21.68;49.78;101013.81;5052789;28;20025;-68
2022/10/20 10:25:33;;;;;;;9.27;4.28;;;;;;;21.72;49.75;101012.41;5051757;28;20413;-68
2022/10/20 10:28:05;;;;;;;8.27;4.28;;;;;;;21.77;50.50;101013.50;5052745;28;20103;-68
2022/10/20 10:30:32;;;;;;;10.80;4.43;;;;;;;21.83;49.52;101011.84;5052719;28;20390;-68
2022/10/20 10:32:58;;;;;;;9.32;4.82;;;;;;;21.89;50.48;101016.53;5051688;28;20033;-68
2022/10/20 10:35:32;;;;;;;8.05;4.72;;;;;;;21.91;50.46;101015.31;5052661;28;20505;-68
2022/10/20 10:37:59;;;;;;;13.50;4.30;;;;;;;21.91;49.83;101009.84;5052455;28;20029;-68
2022/10/20 10:40:37;;;;;;;10.68;4.95;;;;;;;21.93;49.60;101004.19;5052649;28;20108;-68
2022/10/20 10:43:11;;;;;;;11.27;5.40;;;;;;;21.91;50.80;101000.81;5052574;28;20036;-69
2022/10/20 10:45:45;;;;;;;8.68;4.25;;;;;;;21.85;50.09;101002.44;5056220;28;20114;-68
2022/10/20 10:48:41;;;;;;;12.05;5.28;;;;;;;21.83;50.73;101000.94;5056301;28;20438;-68
2022/10/20 10:51:28;;;;;;;12.82;5.60;;;;;;;21.79;51.17;100994.19;5056148;28;20024;-68
2022/10/20 10:54:11;;;;;;;9.15;5.53;;;;;;;21.77;50.27;100996.28;5061998;28;20021;-63
2022/10/20 10:56:42;;;;;;;7.97;4.47;;;;;;;21.67;50.50;100999.34;5063103;28;20025;-63
2022/10/20 10:59:11;;;;;;;12.15;4.68;;;;;;;21.64;51.53;101015.22;5062473;28;20096;-63
2022/10/20 11:01:48;;;;;;;18.00;5.90;;;;;;;21.56;50.67;101018.09;5062961;28;20021;-63
2022/10/20 11:04:28;;;;;;;13.35;5.25;;;;;;;21.45;51.24;101011.28;5078206;28;20046;-62
2022/10/20 11:07:13;;;;;;;13.90;5.95;;;;;;;21.31;52.23;101018.50;5061721;28;20410;-63
2022/10/20 11:09:41;;;;;;;15.38;6.07;;;;;;;21.18;52.21;101007.47;5078939;28;20024;-67
2022/10/20 11:12:39;;;;;;;16.80;5.97;;;;;;;21.05;51.85;100990.13;5078984;28;20031;-67
2022/10/20 11:15:23;;;;;;;12.88;6.68;;;;;;;20.90;52.23;100982.00;5022194;28;20037;-68
2022/10/20 11:18:09;;;;;;;14.60;5.40;;;;;;;20.79;52.47;100972.44;5079947;28;20031;-66
2022/10/20 11:20:34;;;;;;;13.65;5.60;;;;;;;20.72;52.23;100967.94;5079472;28;20025;-62
2022/10/20 11:23:15;;;;;;;9.02;5.70;;;;;;;20.68;53.18;100950.31;5076047;28;20035;-61
2022/10/20 11:25:54;;;;;;;16.33;5.72;;;;;;;20.63;52.98;100958.22;5075785;28;20028;-61
2022/10/20 11:28:30;;;;;;;12.13;5.63;;;;;;;20.61;53.84;100954.81;5057839;28;20016;-60
2022/10/20 11:30:57;;;;;;;10.77;5.25;;;;;;;20.59;53.57;100946.84;5057784;28;20020;-60
2022/10/20 11:33:26;;;;;;;10.50;5.85;;;;;;;20.67;53.99;100948.63;5075949;28;20393;-60